Kessler, West Virginia
Current Conditions -  °F | °C
As of 5:35 PM on Sunday 23 Nov 2014 (Local Time) from KLWB Reporting Station
Light Rain Light Rain  
Wind Chill: 48°   Ceiling: 1700
Heat Index: 50°   Visibility: 10mi
Dew Point: 45°   Wind: 5mph
Humidity: 84%   Direction: 100°E
Pressure: 29.92"   Gusts: NA
Location:  37.948°N, 80.6919°W
Report Text: KLWB 232235Z AUTO 10004KT 10SM -RA OVC017 10/07 A2992 RMK AO2 T00980073
Loading
Personal Weather Stations






























Interactive Weather Map New forecast layout! Learn more

10-Day Weather Forecast

Advertisements
Track Severe Weather on mobile